createdAt,value
2019-05-18T00:00:46.037Z,21.37
2019-05-18T00:03:20.858Z,20.27
2019-05-18T00:05:55.729Z,20.10
2019-05-18T00:08:30.399Z,19.03
2019-05-18T00:11:05.753Z,17.70
2019-05-18T00:13:42.181Z,19.13
2019-05-18T00:16:17.353Z,17.87
2019-05-18T00:18:52.221Z,23.23
2019-05-18T00:21:27.237Z,20.13
2019-05-18T00:24:02.072Z,26.97
2019-05-18T00:26:36.835Z,16.13
2019-05-18T00:29:11.676Z,21.77
2019-05-18T00:31:46.874Z,16.23
2019-05-18T00:34:21.825Z,20.83
2019-05-18T00:37:00.005Z,20.07
2019-05-18T00:39:38.420Z,19.97
2019-05-18T00:42:13.511Z,24.17
2019-05-18T00:44:51.038Z,18.17
2019-05-18T00:47:40.289Z,19.20
2019-05-18T00:50:02.769Z,20.43
2019-05-18T00:52:38.383Z,19.30
2019-05-18T00:55:32.861Z,23.43
2019-05-18T00:58:09.390Z,15.17
2019-05-18T01:00:44.271Z,14.73
2019-05-18T01:03:19.327Z,16.60
2019-05-18T01:05:56.236Z,21.10
2019-05-18T01:08:31.184Z,19.13
2019-05-18T01:11:06.196Z,16.87
2019-05-18T01:13:53.857Z,16.20
2019-05-18T01:16:28.620Z,20.50
2019-05-18T01:19:03.927Z,14.60
2019-05-18T01:21:58.502Z,14.70
2019-05-18T01:24:33.754Z,17.90
2019-05-18T01:27:09.378Z,16.83
2019-05-18T01:29:45.476Z,11.63
2019-05-18T01:32:20.555Z,12.33
2019-05-18T01:34:55.248Z,14.10
2019-05-18T01:37:30.560Z,13.03
2019-05-18T01:40:05.505Z,13.43
2019-05-18T01:42:41.741Z,17.33
2019-05-18T01:45:17.547Z,13.43
2019-05-18T01:47:55.797Z,12.83
2019-05-18T01:50:34.639Z,17.50
2019-05-18T01:53:27.241Z,15.43
2019-05-18T01:56:02.362Z,19.40
2019-05-18T01:58:37.358Z,8.87
2019-05-18T02:01:12.909Z,11.00
2019-05-18T02:03:48.057Z,9.90
2019-05-18T02:06:23.786Z,10.27
2019-05-18T02:09:01.842Z,10.80
2019-05-18T02:11:37.786Z,11.87
2019-05-18T02:14:14.740Z,13.03
2019-05-18T02:16:50.095Z,12.67
2019-05-18T02:19:25.435Z,17.40
2019-05-18T02:22:00.284Z,11.13
2019-05-18T02:24:35.261Z,14.03
2019-05-18T02:27:10.105Z,15.53
2019-05-18T02:29:44.959Z,10.33
2019-05-18T02:32:20.084Z,16.80
2019-05-18T02:34:55.172Z,9.63
2019-05-18T02:37:30.083Z,13.07
2019-05-18T02:40:05.104Z,11.43
2019-05-18T02:42:42.288Z,13.27
2019-05-18T02:45:17.728Z,11.00
2019-05-18T02:47:53.047Z,10.47
2019-05-18T02:50:29.640Z,8.83
2019-05-18T02:53:04.978Z,9.13
2019-05-18T02:55:39.850Z,8.37
2019-05-18T02:58:14.890Z,8.13
2019-05-18T03:00:49.755Z,10.87
2019-05-18T03:03:24.755Z,17.87
2019-05-18T03:05:59.687Z,11.80
2019-05-18T03:08:34.617Z,9.63
2019-05-18T03:11:09.429Z,12.27
2019-05-18T03:13:45.685Z,11.53
2019-05-18T03:16:20.557Z,11.77
2019-05-18T03:19:07.380Z,13.43
2019-05-18T03:21:32.873Z,10.13
2019-05-18T03:24:08.223Z,9.53
2019-05-18T03:26:44.767Z,10.10
2019-05-18T03:29:20.126Z,8.13
2019-05-18T03:31:54.995Z,10.40
2019-05-18T03:34:31.896Z,5.10
2019-05-18T03:37:07.350Z,5.90
2019-05-18T03:39:43.727Z,6.60
2019-05-18T03:42:20.275Z,8.13
2019-05-18T03:44:55.944Z,10.97
2019-05-18T03:47:31.371Z,9.07
2019-05-18T03:50:06.568Z,7.43
2019-05-18T03:52:41.903Z,8.67
2019-05-18T03:55:17.150Z,5.93
2019-05-18T03:57:52.296Z,5.77
2019-05-18T04:00:27.697Z,12.37
2019-05-18T04:03:02.973Z,8.33
2019-05-18T04:05:38.091Z,9.00
2019-05-18T04:08:12.916Z,9.37
2019-05-18T04:10:47.804Z,10.40
2019-05-18T04:13:22.892Z,11.70
2019-05-18T04:15:57.609Z,8.53
2019-05-18T04:18:32.680Z,9.80
2019-05-18T04:21:11.474Z,9.07
2019-05-18T04:23:46.640Z,10.40
2019-05-18T04:26:21.571Z,8.60
2019-05-18T04:28:56.970Z,9.87
2019-05-18T04:31:32.572Z,8.80
2019-05-18T04:34:07.830Z,14.37
2019-05-18T04:36:42.837Z,10.43
2019-05-18T04:39:17.527Z,6.77
2019-05-18T04:41:53.084Z,9.40
2019-05-18T04:44:27.920Z,12.10
2019-05-18T04:47:03.458Z,10.03
2019-05-18T04:49:38.089Z,10.53
2019-05-18T04:52:13.259Z,8.97
2019-05-18T04:54:48.084Z,9.30
2019-05-18T04:57:23.118Z,8.53
2019-05-18T04:59:57.897Z,8.53
2019-05-18T05:02:32.884Z,9.07
2019-05-18T05:05:32.162Z,13.20
2019-05-18T05:08:30.234Z,8.43
2019-05-18T05:11:29.712Z,6.77
2019-05-18T05:14:39.496Z,13.47
2019-05-18T05:17:32.607Z,6.77
2019-05-18T05:20:30.296Z,8.60
2019-05-18T05:23:06.206Z,6.93
2019-05-18T05:25:41.928Z,10.40
2019-05-18T05:28:16.792Z,8.53
2019-05-18T05:30:51.888Z,11.43
2019-05-18T05:33:26.765Z,9.80
2019-05-18T05:36:20.850Z,9.37
2019-05-18T05:38:55.653Z,9.83
2019-05-18T05:41:30.829Z,11.00
2019-05-18T05:44:08.490Z,11.47
2019-05-18T05:46:43.907Z,14.40
2019-05-18T05:49:18.563Z,7.47
2019-05-18T05:51:53.407Z,11.17
2019-05-18T05:54:28.234Z,16.73
2019-05-18T05:57:03.238Z,11.47
2019-05-18T05:59:38.161Z,11.17
2019-05-18T06:02:14.529Z,10.73
2019-05-18T06:04:49.289Z,11.73
2019-05-18T06:07:24.474Z,10.87
2019-05-18T06:09:59.400Z,8.63
2019-05-18T06:12:36.113Z,8.77
2019-05-18T06:15:11.587Z,10.00
2019-05-18T06:17:47.393Z,9.80
2019-05-18T06:20:22.313Z,13.63
2019-05-18T06:22:57.733Z,9.90
2019-05-18T06:25:34.299Z,13.47
2019-05-18T06:28:08.761Z,9.37
2019-05-18T06:30:43.710Z,11.03
2019-05-18T06:33:18.984Z,10.33
2019-05-18T06:35:53.932Z,14.07
2019-05-18T06:38:28.961Z,9.20
2019-05-18T06:41:04.032Z,15.13
2019-05-18T06:43:39.273Z,12.90
2019-05-18T06:46:14.883Z,12.53
2019-05-18T06:48:52.045Z,13.90
2019-05-18T06:51:28.023Z,11.13
2019-05-18T06:54:02.794Z,13.60
2019-05-18T06:56:39.309Z,15.13
2019-05-18T06:59:16.335Z,15.63
2019-05-18T07:01:51.533Z,11.90
2019-05-18T07:04:26.786Z,17.43
2019-05-18T07:07:01.874Z,15.60
2019-05-18T07:09:36.983Z,13.63
2019-05-18T07:12:13.227Z,14.83
2019-05-18T07:14:49.787Z,18.43
2019-05-18T07:17:24.928Z,15.23
2019-05-18T07:20:00.422Z,16.67
2019-05-18T07:22:35.460Z,20.80
2019-05-18T07:25:12.272Z,16.70
2019-05-18T07:27:47.313Z,12.03
2019-05-18T07:30:24.112Z,14.40
2019-05-18T07:32:59.245Z,24.47
2019-05-18T07:35:35.103Z,16.20
2019-05-18T07:38:10.136Z,23.97
2019-05-18T07:40:45.152Z,12.40
2019-05-18T07:43:20.614Z,14.90
2019-05-18T07:45:55.456Z,15.63
2019-05-18T07:48:30.882Z,12.60
2019-05-18T07:51:05.798Z,19.67
2019-05-18T07:53:41.149Z,11.60
2019-05-18T07:56:16.319Z,18.73
2019-05-18T07:58:52.658Z,19.30
2019-05-18T08:01:27.704Z,16.53
2019-05-18T08:04:02.894Z,14.47
2019-05-18T08:06:38.083Z,22.07
2019-05-18T08:09:13.636Z,16.43
2019-05-18T08:11:48.936Z,19.17
2019-05-18T08:14:24.926Z,19.40
2019-05-18T08:17:00.290Z,14.17
2019-05-18T08:19:35.574Z,13.83
2019-05-18T08:22:20.897Z,18.63
2019-05-18T08:24:55.736Z,18.17
2019-05-18T08:27:30.900Z,15.00
2019-05-18T08:30:05.829Z,19.27
2019-05-18T08:32:44.191Z,21.17
2019-05-18T08:35:19.989Z,19.83
2019-05-18T08:37:55.434Z,20.57
2019-05-18T08:40:33.426Z,17.93
2019-05-18T08:43:09.544Z,17.77
2019-05-18T08:45:47.458Z,18.80
2019-05-18T08:48:25.478Z,19.90
2019-05-18T08:51:03.174Z,19.70
2019-05-18T08:53:37.304Z,17.33
2019-05-18T08:56:12.374Z,23.87
2019-05-18T08:58:47.396Z,17.53
2019-05-18T09:01:22.233Z,18.50
2019-05-18T09:03:58.860Z,15.97
2019-05-18T09:06:33.753Z,18.93
2019-05-18T09:09:11.133Z,17.87
2019-05-18T09:11:46.018Z,28.40
2019-05-18T09:14:21.309Z,32.10
2019-05-18T09:16:56.282Z,34.00
2019-05-18T09:19:31.430Z,38.33
2019-05-18T09:22:22.297Z,48.63
2019-05-18T09:24:42.856Z,62.20
2019-05-18T09:27:17.619Z,66.00
2019-05-18T09:29:53.746Z,63.37
2019-05-18T09:32:28.384Z,83.87
2019-05-18T09:35:03.428Z,73.23
2019-05-18T09:37:38.773Z,66.07
2019-05-18T09:40:14.405Z,63.40
2019-05-18T09:42:49.247Z,60.57
2019-05-18T09:45:24.357Z,62.57
2019-05-18T09:47:59.203Z,49.70
2019-05-18T09:50:34.285Z,46.03
2019-05-18T09:53:09.057Z,32.67
2019-05-18T09:55:44.503Z,39.17
2019-05-18T09:58:19.419Z,35.73
2019-05-18T10:00:54.556Z,31.20
2019-05-18T10:03:29.579Z,39.97
2019-05-18T10:06:05.611Z,32.10
2019-05-18T10:08:41.601Z,38.67
2019-05-18T10:11:18.272Z,38.13
2019-05-18T10:13:53.603Z,42.17
2019-05-18T10:16:29.042Z,33.53
2019-05-18T10:19:05.169Z,39.97
2019-05-18T10:21:40.584Z,35.73
2019-05-18T10:24:15.629Z,36.53
2019-05-18T10:26:50.789Z,29.57
2019-05-18T10:29:25.814Z,43.00
2019-05-18T10:32:01.051Z,53.23
2019-05-18T10:34:36.401Z,42.13
2019-05-18T10:37:11.539Z,44.00
2019-05-18T10:39:46.484Z,43.33
2019-05-18T10:42:22.175Z,39.67
2019-05-18T10:44:57.473Z,43.30
2019-05-18T10:47:32.571Z,40.27
2019-05-18T10:50:09.051Z,39.53
2019-05-18T10:52:44.031Z,35.60
2019-05-18T10:55:19.800Z,37.53
2019-05-18T10:57:54.814Z,36.73
2019-05-18T11:00:30.008Z,30.97
2019-05-18T11:03:04.919Z,35.83
2019-05-18T11:05:40.256Z,37.60
2019-05-18T11:08:15.231Z,30.60
2019-05-18T11:10:50.440Z,32.90
2019-05-18T11:13:25.784Z,30.87
2019-05-18T11:16:01.175Z,29.23
2019-05-18T11:18:36.837Z,29.20
2019-05-18T11:21:12.190Z,27.47
2019-05-18T11:23:48.122Z,33.37
2019-05-18T11:26:23.494Z,29.53
2019-05-18T11:28:58.925Z,33.37
2019-05-18T11:31:34.365Z,29.93
2019-05-18T11:34:09.453Z,31.10
2019-05-18T11:36:44.823Z,34.33
2019-05-18T11:39:19.701Z,29.63
2019-05-18T11:41:55.322Z,29.90
2019-05-18T11:44:30.381Z,29.57
2019-05-18T11:47:05.859Z,33.53
2019-05-18T11:49:40.676Z,28.93
2019-05-18T11:52:15.967Z,31.50
2019-05-18T11:54:50.928Z,31.77
2019-05-18T11:57:26.073Z,28.63
2019-05-18T12:00:01.099Z,33.73
2019-05-18T12:02:37.361Z,30.73
2019-05-18T12:05:12.549Z,31.17
2019-05-18T12:07:47.631Z,31.77
2019-05-18T12:10:22.589Z,29.23
2019-05-18T12:12:58.225Z,35.30
2019-05-18T12:15:33.191Z,34.23
2019-05-18T12:18:08.183Z,51.27
2019-05-18T12:20:43.255Z,118.80
2019-05-18T12:23:19.072Z,62.30
2019-05-18T12:25:53.808Z,56.80
2019-05-18T12:28:31.564Z,50.27
2019-05-18T12:31:06.839Z,48.00
2019-05-18T12:33:41.985Z,50.03
2019-05-18T12:36:17.937Z,33.17
2019-05-18T12:38:52.803Z,31.97
2019-05-18T12:41:34.042Z,33.67
2019-05-18T12:44:09.020Z,32.13
2019-05-18T12:46:43.795Z,30.13
2019-05-18T12:49:19.042Z,30.77
2019-05-18T12:51:53.694Z,33.03
2019-05-18T12:54:45.312Z,26.77
2019-05-18T12:57:06.220Z,28.23
2019-05-18T12:59:42.690Z,31.53
2019-05-18T13:02:17.746Z,32.87
2019-05-18T13:04:54.240Z,30.23
2019-05-18T13:07:32.035Z,30.00
2019-05-18T13:10:08.464Z,29.73
2019-05-18T13:12:43.396Z,28.57
2019-05-18T13:15:19.592Z,30.53
2019-05-18T13:17:54.720Z,29.53
2019-05-18T13:20:30.445Z,26.97
2019-05-18T13:23:05.391Z,28.97
2019-05-18T13:25:40.467Z,28.67
2019-05-18T13:28:15.488Z,27.53
2019-05-18T13:30:50.552Z,29.57
2019-05-18T13:33:25.333Z,29.87
2019-05-18T13:36:00.873Z,25.13
2019-05-18T13:38:35.790Z,32.10
2019-05-18T13:41:13.035Z,28.13
2019-05-18T13:43:48.245Z,27.07
2019-05-18T13:46:22.979Z,27.87
2019-05-18T13:48:58.096Z,25.33
2019-05-18T13:51:33.264Z,27.07
2019-05-18T13:54:08.345Z,25.67
2019-05-18T13:56:43.518Z,27.53
2019-05-18T13:59:19.959Z,22.67
2019-05-18T14:01:55.240Z,27.57
2019-05-18T14:04:30.147Z,27.17
2019-05-18T14:07:05.560Z,25.77
2019-05-18T14:09:40.613Z,30.73
2019-05-18T14:12:15.903Z,27.67
2019-05-18T14:14:50.819Z,30.40
2019-05-18T14:17:25.966Z,26.47
2019-05-18T14:20:00.859Z,29.80
2019-05-18T14:22:36.247Z,30.47
2019-05-18T14:25:19.317Z,27.07
2019-05-18T14:27:48.347Z,27.53
2019-05-18T14:30:24.111Z,28.50
2019-05-18T14:32:59.483Z,28.97
2019-05-18T14:35:34.313Z,34.00
2019-05-18T14:38:10.214Z,32.77
2019-05-18T14:40:45.186Z,30.20
2019-05-18T14:43:20.656Z,29.77
2019-05-18T14:45:56.495Z,28.33
2019-05-18T14:48:31.703Z,25.67
2019-05-18T14:51:06.703Z,28.47
2019-05-18T14:53:41.987Z,30.57
2019-05-18T14:56:16.942Z,26.13
2019-05-18T14:58:52.157Z,25.10
2019-05-18T15:01:27.222Z,27.87
2019-05-18T15:04:03.166Z,26.70
2019-05-18T15:06:38.008Z,29.20
2019-05-18T15:09:14.219Z,25.70
2019-05-18T15:11:48.915Z,28.30
2019-05-18T15:14:24.308Z,26.13
2019-05-18T15:16:59.401Z,26.57
2019-05-18T15:19:34.765Z,28.13
2019-05-18T15:22:10.578Z,28.73
2019-05-18T15:24:45.457Z,30.00
2019-05-18T15:27:20.543Z,27.47
2019-05-18T15:29:55.373Z,26.30
2019-05-18T15:32:30.527Z,26.03
2019-05-18T15:35:06.033Z,30.73
2019-05-18T15:37:43.563Z,30.80
2019-05-18T15:40:18.061Z,23.87
2019-05-18T15:42:52.833Z,27.33
2019-05-18T15:45:28.282Z,26.07
2019-05-18T15:48:03.226Z,29.17
2019-05-18T15:50:38.481Z,26.47
2019-05-18T15:53:13.603Z,29.60
2019-05-18T15:55:48.983Z,30.17
2019-05-18T15:58:23.724Z,28.83
2019-05-18T16:00:58.995Z,26.47
2019-05-18T16:03:52.578Z,27.00
2019-05-18T16:06:27.474Z,27.90
2019-05-18T16:09:02.614Z,29.70
2019-05-18T16:11:37.839Z,31.97
2019-05-18T16:14:13.012Z,28.77
2019-05-18T16:16:48.927Z,27.67
2019-05-18T16:19:23.903Z,25.20
2019-05-18T16:21:59.182Z,27.77
2019-05-18T16:24:34.174Z,30.93
2019-05-18T16:27:09.301Z,28.23
2019-05-18T16:29:44.248Z,29.57
2019-05-18T16:32:19.546Z,25.87
2019-05-18T16:34:55.099Z,26.73
2019-05-18T16:37:30.141Z,29.27
2019-05-18T16:43:51.189Z,27.90
2019-05-18T16:46:25.896Z,30.57
2019-05-18T16:49:00.892Z,29.20
2019-05-18T16:51:35.708Z,34.07
2019-05-18T16:54:10.562Z,32.37
2019-05-18T16:56:45.503Z,30.07
2019-05-18T16:59:20.958Z,30.73
2019-05-18T17:01:56.424Z,28.87
2019-05-18T17:04:31.799Z,30.33
2019-05-18T17:07:07.121Z,30.87
2019-05-18T17:09:41.974Z,30.10
2019-05-18T17:12:17.164Z,28.53
2019-05-18T17:14:51.954Z,29.20
2019-05-18T17:17:27.022Z,27.73
2019-05-18T17:20:01.887Z,30.13
2019-05-18T17:22:38.130Z,26.97
2019-05-18T17:25:13.057Z,32.73
2019-05-18T17:27:48.651Z,25.07
2019-05-18T17:30:23.763Z,35.07
2019-05-18T17:32:58.699Z,28.23
2019-05-18T17:35:33.555Z,28.40
2019-05-18T17:38:09.648Z,28.87
2019-05-18T17:40:44.331Z,27.10
2019-05-18T17:43:19.869Z,35.40
2019-05-18T17:45:54.938Z,28.83
2019-05-18T17:48:30.201Z,25.90
2019-05-18T17:51:05.024Z,28.80
2019-05-18T17:53:40.068Z,27.23
2019-05-18T17:56:15.044Z,23.73
2019-05-18T17:58:50.087Z,29.63
2019-05-18T18:01:25.113Z,28.97
2019-05-18T18:04:00.984Z,32.97
2019-05-18T18:06:35.902Z,28.83
2019-05-18T18:09:11.788Z,29.03
2019-05-18T18:11:46.903Z,27.10
2019-05-18T18:14:41.080Z,27.67
2019-05-18T18:17:17.852Z,31.53
2019-05-18T18:19:53.242Z,27.30
2019-05-18T18:22:28.447Z,29.90
2019-05-18T18:25:03.266Z,31.47
2019-05-18T18:27:38.649Z,26.73
2019-05-18T18:30:13.764Z,27.67
2019-05-18T18:32:49.171Z,25.63
2019-05-18T18:35:24.051Z,26.13
2019-05-18T18:38:00.192Z,29.77
2019-05-18T18:40:35.420Z,27.97
2019-05-18T18:43:10.750Z,30.83
2019-05-18T18:45:45.629Z,27.20
2019-05-18T18:48:21.569Z,29.67
2019-05-18T18:50:56.814Z,26.37
2019-05-18T18:53:32.687Z,24.60
2019-05-18T18:56:07.639Z,25.33
2019-05-18T18:58:43.238Z,25.23
2019-05-18T19:01:18.448Z,23.60
2019-05-18T19:03:53.727Z,30.00
2019-05-18T19:06:28.564Z,25.87
2019-05-18T19:09:04.119Z,25.77
2019-05-18T19:11:39.312Z,27.63
2019-05-18T19:14:30.254Z,30.13
2019-05-18T19:17:05.173Z,25.50
2019-05-18T19:19:40.311Z,24.37
2019-05-18T19:22:16.328Z,26.30
2019-05-18T19:24:51.172Z,29.93
2019-05-18T19:27:25.969Z,28.03
2019-05-18T19:30:02.889Z,32.20
2019-05-18T19:32:38.161Z,30.00
2019-05-18T19:35:13.498Z,27.47
2019-05-18T19:37:48.275Z,25.23
2019-05-18T19:40:24.306Z,29.47
2019-05-18T19:42:59.310Z,30.93
2019-05-18T19:45:35.177Z,31.03
2019-05-18T19:48:23.273Z,29.77
2019-05-18T19:50:58.299Z,27.33
2019-05-18T19:53:33.497Z,30.67
2019-05-18T19:56:08.365Z,34.13
2019-05-18T19:58:43.491Z,29.77
2019-05-18T20:01:18.926Z,32.97
2019-05-18T20:03:53.991Z,32.97
2019-05-18T20:06:28.999Z,29.00
2019-05-18T20:09:03.869Z,30.63
2019-05-18T20:11:40.876Z,33.33
2019-05-18T20:14:16.839Z,35.07
2019-05-18T20:16:52.147Z,35.33
2019-05-18T20:19:38.759Z,36.40
2019-05-18T20:22:03.410Z,32.43
2019-05-18T20:24:38.374Z,32.17
2019-05-18T20:27:13.587Z,33.00
2019-05-18T20:29:48.445Z,36.83
2019-05-18T20:32:23.967Z,33.97
2019-05-18T20:34:59.256Z,46.27
2019-05-18T20:37:35.303Z,37.57
2019-05-18T20:40:10.949Z,33.60
2019-05-18T20:42:45.780Z,34.50
2019-05-18T20:45:20.953Z,35.43
2019-05-18T20:47:55.724Z,36.87
2019-05-18T20:50:31.000Z,34.13
2019-05-18T20:53:06.392Z,30.73
2019-05-18T20:55:42.149Z,35.10
2019-05-18T20:58:17.113Z,36.10
2019-05-18T21:00:52.272Z,33.37
2019-05-18T21:03:27.134Z,35.23
2019-05-18T21:06:03.312Z,33.03
2019-05-18T21:08:38.600Z,30.90
2019-05-18T21:11:15.273Z,31.23
2019-05-18T21:13:49.972Z,30.00
2019-05-18T21:16:25.441Z,28.40
2019-05-18T21:19:00.120Z,29.03
2019-05-18T21:21:35.465Z,29.23
2019-05-18T21:24:10.210Z,34.20
2019-05-18T21:26:45.364Z,28.87
2019-05-18T21:29:20.301Z,26.67
2019-05-18T21:31:55.368Z,30.60
2019-05-18T21:34:30.038Z,29.50
2019-05-18T21:37:05.171Z,28.37
2019-05-18T21:39:40.228Z,24.87
2019-05-18T21:42:16.077Z,25.33
2019-05-18T21:44:51.417Z,30.83
2019-05-18T21:47:26.495Z,33.67
2019-05-18T21:50:01.457Z,26.73
2019-05-18T21:52:36.932Z,28.77
2019-05-18T21:55:13.173Z,29.50
2019-05-18T21:57:48.287Z,26.97
2019-05-18T22:00:41.854Z,24.60
2019-05-18T22:03:18.442Z,24.60
2019-05-18T22:05:58.729Z,24.53
2019-05-18T22:08:53.451Z,30.30
2019-05-18T22:11:28.192Z,26.90
2019-05-18T22:14:03.849Z,27.03
2019-05-18T22:16:38.789Z,26.47
2019-05-18T22:19:13.973Z,27.43
2019-05-18T22:21:48.962Z,27.30
2019-05-18T22:24:24.378Z,29.47
2019-05-18T22:26:59.506Z,27.50
2019-05-18T22:29:35.150Z,23.57
2019-05-18T22:32:11.094Z,30.87
2019-05-18T22:34:47.410Z,25.33
2019-05-18T22:37:22.594Z,24.73
2019-05-18T22:39:57.472Z,28.13
2019-05-18T22:42:32.517Z,24.57
2019-05-18T22:45:08.838Z,26.87
2019-05-18T22:47:45.561Z,26.23
2019-05-18T22:50:21.064Z,24.87
2019-05-18T22:53:02.099Z,21.67
2019-05-18T22:55:36.987Z,26.60
2019-05-18T22:58:11.831Z,26.10
2019-05-18T23:00:48.449Z,30.87
2019-05-18T23:03:27.155Z,20.93
2019-05-18T23:06:02.559Z,26.90
2019-05-18T23:08:38.052Z,20.47
2019-05-18T23:11:17.137Z,20.00
2019-05-18T23:13:53.701Z,24.80
2019-05-18T23:16:31.197Z,19.50
2019-05-18T23:19:08.180Z,20.43
2019-05-18T23:21:43.172Z,17.97
2019-05-18T23:24:21.834Z,20.87
2019-05-18T23:26:59.530Z,16.87
2019-05-18T23:29:58.025Z,23.50
2019-05-18T23:32:34.354Z,20.23
2019-05-18T23:35:11.968Z,19.80
2019-05-18T23:37:47.722Z,22.20
2019-05-18T23:40:25.939Z,21.50
2019-05-18T23:43:19.922Z,16.37
2019-05-18T23:45:56.054Z,16.53
2019-05-18T23:48:32.145Z,22.00
2019-05-18T23:51:08.823Z,17.13
2019-05-18T23:53:44.093Z,14.53
2019-05-18T23:56:21.413Z,15.60
2019-05-18T23:58:56.989Z,11.40
